createdAt,value
2017-09-03T00:00:32.493Z,11.50
2017-09-03T00:03:00.126Z,11.60
2017-09-03T00:05:27.709Z,11.50
2017-09-03T00:07:55.293Z,11.60
2017-09-03T00:10:24.134Z,11.60
2017-09-03T00:12:51.735Z,11.40
2017-09-03T00:15:19.323Z,11.50
2017-09-03T00:17:46.928Z,11.50
2017-09-03T00:20:14.600Z,11.40
2017-09-03T00:22:42.203Z,11.50
2017-09-03T00:25:09.780Z,11.60
2017-09-03T00:27:37.594Z,11.70
2017-09-03T00:30:05.935Z,11.90
2017-09-03T00:32:33.504Z,11.90
2017-09-03T00:35:01.098Z,12.00
2017-09-03T00:37:29.431Z,12.10
2017-09-03T00:39:57.056Z,12.10
2017-09-03T00:42:24.652Z,11.90
2017-09-03T00:44:52.619Z,11.90
2017-09-03T00:47:20.209Z,11.80
2017-09-03T00:49:47.805Z,11.80
2017-09-03T00:52:15.397Z,11.70
2017-09-03T00:54:42.999Z,11.60
2017-09-03T00:57:10.587Z,11.60
2017-09-03T00:59:38.169Z,11.70
2017-09-03T01:02:06.146Z,11.60
2017-09-03T01:04:33.723Z,11.70
2017-09-03T01:07:01.305Z,11.80
2017-09-03T01:09:28.901Z,11.80
2017-09-03T01:11:56.469Z,11.90
2017-09-03T01:14:24.111Z,12.00
2017-09-03T01:16:51.673Z,11.90
2017-09-03T01:19:19.575Z,11.80
2017-09-03T01:21:47.142Z,11.70
2017-09-03T01:24:14.722Z,11.70
2017-09-03T01:26:43.114Z,11.80
2017-09-03T01:29:10.681Z,11.80
2017-09-03T01:31:38.289Z,11.80
2017-09-03T01:34:05.861Z,11.80
2017-09-03T01:36:34.327Z,11.70
2017-09-03T01:39:01.924Z,11.80
2017-09-03T01:41:29.631Z,11.80
2017-09-03T01:43:57.332Z,11.60
2017-09-03T01:46:24.974Z,11.50
2017-09-03T01:48:52.595Z,11.40
2017-09-03T01:51:20.179Z,11.40
2017-09-03T01:53:48.131Z,11.50
2017-09-03T01:56:15.726Z,11.40
2017-09-03T01:58:43.322Z,11.40
2017-09-03T02:01:11.126Z,11.60
2017-09-03T02:03:38.771Z,11.40
2017-09-03T02:06:06.381Z,11.40
2017-09-03T02:08:33.958Z,11.40
2017-09-03T02:11:02.579Z,11.60
2017-09-03T02:13:30.173Z,11.50
2017-09-03T02:15:57.805Z,11.50
2017-09-03T02:18:25.390Z,11.50
2017-09-03T02:20:52.958Z,11.50
2017-09-03T02:23:20.570Z,11.50
2017-09-03T02:25:48.179Z,11.50
2017-09-03T02:28:16.106Z,11.50
2017-09-03T02:30:43.678Z,11.50
2017-09-03T02:33:11.268Z,11.40
2017-09-03T02:35:38.868Z,11.40
2017-09-03T02:38:06.440Z,11.40
2017-09-03T02:40:34.037Z,11.50
2017-09-03T02:43:01.595Z,11.50
2017-09-03T02:45:29.462Z,11.40
2017-09-03T02:47:57.909Z,11.40
2017-09-03T02:50:25.491Z,11.30
2017-09-03T02:52:53.097Z,11.20
2017-09-03T02:55:20.701Z,11.20
2017-09-03T02:57:48.285Z,11.30
2017-09-03T03:00:15.913Z,11.40
2017-09-03T03:02:43.820Z,11.30
2017-09-03T03:05:11.410Z,11.20
2017-09-03T03:07:38.970Z,11.20
2017-09-03T03:10:06.588Z,11.10
2017-09-03T03:12:34.168Z,11.10
2017-09-03T03:15:01.773Z,11.10
2017-09-03T03:17:29.345Z,11.10
2017-09-03T03:19:57.232Z,11.10
2017-09-03T03:22:24.821Z,10.90
2017-09-03T03:24:52.453Z,10.90
2017-09-03T03:27:20.057Z,10.90
2017-09-03T03:29:47.618Z,10.80
2017-09-03T03:32:15.209Z,10.80
2017-09-03T03:34:42.794Z,10.90
2017-09-03T03:37:10.760Z,10.90
2017-09-03T03:39:38.339Z,11.00
2017-09-03T03:42:05.906Z,10.90
2017-09-03T03:44:33.508Z,10.90
2017-09-03T03:47:01.077Z,10.80
2017-09-03T03:49:28.686Z,11.00
2017-09-03T03:51:56.254Z,10.90
2017-09-03T03:54:24.910Z,11.10
2017-09-03T03:56:52.539Z,11.10
2017-09-03T03:59:20.120Z,11.10
2017-09-03T04:01:47.763Z,11.00
2017-09-03T04:04:15.515Z,10.90
2017-09-03T04:06:43.120Z,10.80
2017-09-03T04:09:10.705Z,10.80
2017-09-03T04:11:38.625Z,10.80
2017-09-03T04:14:06.199Z,10.90
2017-09-03T04:16:33.795Z,10.90
2017-09-03T04:19:01.378Z,10.80
2017-09-03T04:21:28.951Z,10.80
2017-09-03T04:23:56.768Z,10.80
2017-09-03T04:26:25.183Z,10.80
2017-09-03T04:28:53.060Z,10.80
2017-09-03T04:31:20.626Z,10.80
2017-09-03T04:33:48.201Z,10.80
2017-09-03T04:36:15.801Z,10.80
2017-09-03T04:38:43.397Z,10.70
2017-09-03T04:41:11.014Z,10.70
2017-09-03T04:43:38.602Z,10.70
2017-09-03T04:46:06.201Z,10.80
2017-09-03T04:48:33.767Z,10.90
2017-09-03T04:51:01.729Z,10.90
2017-09-03T04:53:29.288Z,10.80
2017-09-03T04:55:56.867Z,10.80
2017-09-03T04:58:24.465Z,10.80
2017-09-03T05:00:52.036Z,10.80
2017-09-03T05:03:19.692Z,11.00
2017-09-03T05:05:47.273Z,10.90
2017-09-03T05:08:15.126Z,10.90
2017-09-03T05:10:42.795Z,10.70
2017-09-03T05:13:10.369Z,10.70
2017-09-03T05:15:37.934Z,10.80
2017-09-03T05:18:05.514Z,10.80
2017-09-03T05:20:33.159Z,10.90
2017-09-03T05:23:00.751Z,10.70
2017-09-03T05:25:28.626Z,10.90
2017-09-03T05:27:56.209Z,10.90
2017-09-03T05:30:23.780Z,10.90
2017-09-03T05:32:52.299Z,10.80
2017-09-03T05:35:19.877Z,10.70
2017-09-03T05:37:47.514Z,10.60
2017-09-03T05:40:15.081Z,10.60
2017-09-03T05:42:43.012Z,10.70
2017-09-03T05:45:10.603Z,10.60
2017-09-03T05:47:38.195Z,10.70
2017-09-03T05:50:05.813Z,10.60
2017-09-03T05:52:33.405Z,10.60
2017-09-03T05:55:00.993Z,10.70
2017-09-03T05:57:28.563Z,10.70
2017-09-03T05:59:56.567Z,10.70
2017-09-03T06:02:24.164Z,10.80
2017-09-03T06:04:51.740Z,10.80
2017-09-03T06:07:19.343Z,10.90
2017-09-03T06:09:47.687Z,11.10
2017-09-03T06:12:16.113Z,11.10
2017-09-03T06:14:43.678Z,11.20
2017-09-03T06:17:11.639Z,11.30
2017-09-03T06:19:40.074Z,11.30
2017-09-03T06:22:07.652Z,11.40
2017-09-03T06:24:35.282Z,11.40
2017-09-03T06:27:02.888Z,11.50
2017-09-03T06:29:30.511Z,11.60
2017-09-03T06:31:58.108Z,11.70
2017-09-03T06:34:25.943Z,11.50
2017-09-03T06:36:53.538Z,11.50
2017-09-03T06:39:21.153Z,11.40
2017-09-03T06:41:48.763Z,11.50
2017-09-03T06:44:16.359Z,11.60
2017-09-03T06:46:43.965Z,11.80
2017-09-03T06:49:11.548Z,11.90
2017-09-03T06:51:39.395Z,11.90
2017-09-03T06:54:07.011Z,12.10
2017-09-03T06:56:34.598Z,12.00
2017-09-03T06:59:02.200Z,12.10
2017-09-03T07:01:30.765Z,11.90
2017-09-03T07:03:58.370Z,12.10
2017-09-03T07:06:25.974Z,12.30
2017-09-03T07:08:54.828Z,12.30
2017-09-03T07:11:22.412Z,12.50
2017-09-03T07:13:49.994Z,12.50
2017-09-03T07:16:17.613Z,12.50
2017-09-03T07:18:45.209Z,12.60
2017-09-03T07:21:12.827Z,12.60
2017-09-03T07:23:40.442Z,12.60
2017-09-03T07:26:08.400Z,12.70
2017-09-03T07:28:37.039Z,12.60
2017-09-03T07:31:04.845Z,12.90
2017-09-03T07:33:32.447Z,13.00
2017-09-03T07:36:00.781Z,13.10
2017-09-03T07:38:28.887Z,13.20
2017-09-03T07:40:56.473Z,13.30
2017-09-03T07:43:24.376Z,13.10
2017-09-03T07:45:51.952Z,13.30
2017-09-03T07:48:19.531Z,13.50
2017-09-03T07:50:47.936Z,13.70
2017-09-03T07:53:15.534Z,13.70
2017-09-03T07:55:43.492Z,13.80
2017-09-03T07:58:11.082Z,14.00
2017-09-03T08:00:38.637Z,14.10
2017-09-03T08:03:06.312Z,14.10
2017-09-03T08:05:33.887Z,14.20
2017-09-03T08:08:02.154Z,14.30
2017-09-03T08:10:29.735Z,14.20
2017-09-03T08:12:57.951Z,14.10
2017-09-03T08:15:25.578Z,14.00
2017-09-03T08:17:53.140Z,14.00
2017-09-03T08:20:20.744Z,14.40
2017-09-03T08:22:48.336Z,14.50
2017-09-03T08:25:15.951Z,14.60
2017-09-03T08:27:43.565Z,14.30
2017-09-03T08:30:11.463Z,14.40
2017-09-03T08:32:39.059Z,14.10
2017-09-03T08:35:06.640Z,14.00
2017-09-03T08:37:34.240Z,14.10
2017-09-03T08:40:01.830Z,14.30
2017-09-03T08:42:29.443Z,14.40
2017-09-03T08:44:57.043Z,14.70
2017-09-03T08:47:25.022Z,15.00
2017-09-03T08:49:52.611Z,15.00
2017-09-03T08:52:20.310Z,15.30
2017-09-03T08:54:47.912Z,15.00
2017-09-03T08:57:15.481Z,15.00
2017-09-03T08:59:44.367Z,15.20
2017-09-03T09:02:12.027Z,15.30
2017-09-03T09:04:40.816Z,15.70
2017-09-03T09:07:08.432Z,15.70
2017-09-03T09:09:36.006Z,15.80
2017-09-03T09:12:03.578Z,15.80
2017-09-03T09:14:31.154Z,15.80
2017-09-03T09:16:59.544Z,15.80
2017-09-03T09:19:27.119Z,15.80
2017-09-03T09:21:55.040Z,15.80
2017-09-03T09:24:22.610Z,15.20
2017-09-03T09:26:50.249Z,15.20
2017-09-03T09:29:18.188Z,15.50
2017-09-03T09:31:45.807Z,15.20
2017-09-03T09:34:13.433Z,15.40
2017-09-03T09:36:41.120Z,15.40
2017-09-03T09:39:08.991Z,15.70
2017-09-03T09:41:36.616Z,15.70
2017-09-03T09:44:04.180Z,16.10
2017-09-03T09:46:31.823Z,15.90
2017-09-03T09:48:59.483Z,16.00
2017-09-03T09:51:27.079Z,16.10
2017-09-03T09:53:54.636Z,16.40
2017-09-03T09:56:27.382Z,16.30
2017-09-03T09:58:54.958Z,16.40
2017-09-03T10:01:22.551Z,16.50
2017-09-03T10:03:50.184Z,16.00
2017-09-03T10:06:17.814Z,16.20
2017-09-03T10:08:45.805Z,16.50
2017-09-03T10:11:13.401Z,16.80
2017-09-03T10:13:41.009Z,17.20
2017-09-03T10:16:08.667Z,17.90
2017-09-03T10:18:36.275Z,18.20
2017-09-03T10:21:03.914Z,19.20
2017-09-03T10:23:31.524Z,19.50
2017-09-03T10:25:59.462Z,20.30
2017-09-03T10:28:27.069Z,20.40
2017-09-03T10:30:54.689Z,20.40
2017-09-03T10:33:22.340Z,20.60
2017-09-03T10:35:49.951Z,21.30
2017-09-03T10:38:17.599Z,22.70
2017-09-03T10:40:45.208Z,23.20
2017-09-03T10:43:13.186Z,25.10
2017-09-03T10:45:40.810Z,26.80
2017-09-03T10:48:08.572Z,28.00
2017-09-03T10:50:36.212Z,29.20
2017-09-03T10:53:03.807Z,30.80
2017-09-03T10:55:31.426Z,30.90
2017-09-03T10:57:59.023Z,30.70
2017-09-03T11:00:26.952Z,31.70
2017-09-03T11:02:54.530Z,33.10
2017-09-03T11:05:22.754Z,32.10
2017-09-03T11:07:50.385Z,32.40
2017-09-03T11:10:18.031Z,32.90
2017-09-03T11:12:46.563Z,33.70
2017-09-03T11:15:14.168Z,31.60
2017-09-03T11:17:42.105Z,31.80
2017-09-03T11:20:09.701Z,30.30
2017-09-03T11:22:37.268Z,28.70
2017-09-03T11:25:04.885Z,27.60
2017-09-03T11:27:32.492Z,26.80
2017-09-03T11:30:00.375Z,27.10
2017-09-03T11:32:27.961Z,29.50
2017-09-03T11:34:55.693Z,31.00
2017-09-03T11:37:23.336Z,29.40
2017-09-03T11:39:50.915Z,28.50
2017-09-03T11:42:18.533Z,28.60
2017-09-03T11:44:46.125Z,28.20
2017-09-03T11:47:14.013Z,28.40
2017-09-03T11:49:41.611Z,29.80
2017-09-03T11:52:09.182Z,30.40
2017-09-03T11:54:36.784Z,29.50
2017-09-03T11:57:04.378Z,30.20
2017-09-03T11:59:32.023Z,30.80
2017-09-03T12:01:59.660Z,30.00
2017-09-03T12:04:27.565Z,28.60
2017-09-03T12:06:55.161Z,29.10
2017-09-03T12:09:24.091Z,29.60
2017-09-03T12:11:51.727Z,29.70
2017-09-03T12:14:20.148Z,29.60
2017-09-03T12:16:47.773Z,29.50
2017-09-03T12:19:15.428Z,29.40
2017-09-03T12:21:43.326Z,29.50
2017-09-03T12:24:10.940Z,30.40
2017-09-03T12:26:38.503Z,30.10
2017-09-03T12:29:06.177Z,28.40
2017-09-03T12:31:33.728Z,27.70
2017-09-03T12:34:01.320Z,27.40
2017-09-03T12:36:28.902Z,28.30
2017-09-03T12:38:57.054Z,29.00
2017-09-03T12:41:24.691Z,28.80
2017-09-03T12:43:52.287Z,28.70
2017-09-03T12:46:19.917Z,28.70
2017-09-03T12:48:47.483Z,30.20
2017-09-03T12:51:15.464Z,30.60
2017-09-03T12:53:43.050Z,31.40
2017-09-03T12:56:10.638Z,32.20
2017-09-03T12:58:38.324Z,32.70
2017-09-03T13:01:05.904Z,31.80
2017-09-03T13:03:33.502Z,31.20
2017-09-03T13:06:01.120Z,30.70
2017-09-03T13:08:29.703Z,29.30
2017-09-03T13:10:57.293Z,29.60
2017-09-03T13:13:24.887Z,30.50
2017-09-03T13:15:52.511Z,30.30
2017-09-03T13:18:20.099Z,30.60
2017-09-03T13:20:47.682Z,29.80
2017-09-03T13:23:15.300Z,29.60
2017-09-03T13:25:43.181Z,27.80
2017-09-03T13:28:11.521Z,27.00
2017-09-03T13:30:39.116Z,27.00
2017-09-03T13:33:07.485Z,26.10
2017-09-03T13:35:35.085Z,26.10
2017-09-03T13:38:02.762Z,25.70
2017-09-03T13:40:30.433Z,25.70
2017-09-03T13:42:58.018Z,25.20
2017-09-03T13:45:25.608Z,24.90
2017-09-03T13:47:53.201Z,24.80
2017-09-03T13:50:21.112Z,24.70
2017-09-03T13:52:48.671Z,24.50
2017-09-03T13:55:17.050Z,23.80
2017-09-03T13:57:44.637Z,23.70
2017-09-03T14:00:12.205Z,23.70
2017-09-03T14:02:40.113Z,24.00
2017-09-03T14:05:07.674Z,24.20
2017-09-03T14:07:35.268Z,23.50
2017-09-03T14:10:02.890Z,23.80
2017-09-03T14:12:30.476Z,24.10
2017-09-03T14:14:58.079Z,23.90
2017-09-03T14:17:25.685Z,24.00
2017-09-03T14:19:53.634Z,24.10
2017-09-03T14:22:21.212Z,24.00
2017-09-03T14:24:48.803Z,23.90
2017-09-03T14:27:16.420Z,23.90
2017-09-03T14:29:44.030Z,23.20
2017-09-03T14:32:11.641Z,23.00
2017-09-03T14:34:39.228Z,23.10
2017-09-03T14:37:07.152Z,23.00
2017-09-03T14:39:34.771Z,22.90
2017-09-03T14:42:02.355Z,22.60
2017-09-03T14:44:29.965Z,22.70
2017-09-03T14:46:58.155Z,22.70
2017-09-03T14:49:25.762Z,22.90
2017-09-03T14:51:53.345Z,22.60
2017-09-03T14:54:21.198Z,22.30
2017-09-03T14:56:48.840Z,22.60
2017-09-03T14:59:16.431Z,22.50
2017-09-03T15:01:44.039Z,22.50
2017-09-03T15:04:11.593Z,22.30
2017-09-03T15:06:39.212Z,21.80
2017-09-03T15:09:06.813Z,21.90
2017-09-03T15:11:34.730Z,22.00
2017-09-03T15:14:02.357Z,22.10
2017-09-03T15:16:29.923Z,21.90
2017-09-03T15:18:57.533Z,21.60
2017-09-03T15:21:25.150Z,21.60
2017-09-03T15:23:52.747Z,21.50
2017-09-03T15:26:20.341Z,21.20
2017-09-03T15:28:48.280Z,21.10
2017-09-03T15:31:17.511Z,20.90
2017-09-03T15:33:45.091Z,20.90
2017-09-03T15:36:12.709Z,20.80
2017-09-03T15:38:40.294Z,20.90
2017-09-03T15:41:08.024Z,20.80
2017-09-03T15:43:35.625Z,20.80
2017-09-03T15:46:03.636Z,20.40
2017-09-03T15:48:31.208Z,20.30
2017-09-03T15:50:58.832Z,20.40
2017-09-03T15:53:26.431Z,20.30
2017-09-03T15:55:54.015Z,20.30
2017-09-03T15:58:21.628Z,20.30
2017-09-03T16:00:49.278Z,20.30
2017-09-03T16:03:17.253Z,20.30
2017-09-03T16:05:44.824Z,20.20
2017-09-03T16:08:12.432Z,20.10
2017-09-03T16:10:40.006Z,20.10
2017-09-03T16:13:07.592Z,20.20
2017-09-03T16:15:35.209Z,20.30
2017-09-03T16:18:02.799Z,20.30
2017-09-03T16:20:30.650Z,20.40
2017-09-03T16:22:58.228Z,20.30
2017-09-03T16:25:25.820Z,20.20
2017-09-03T16:27:53.765Z,20.10
2017-09-03T16:30:21.378Z,20.10
2017-09-03T16:32:48.988Z,20.00
2017-09-03T16:35:16.572Z,19.90
2017-09-03T16:37:44.534Z,19.80
2017-09-03T16:40:12.121Z,19.70
2017-09-03T16:42:39.712Z,19.80
2017-09-03T16:45:07.294Z,19.70
2017-09-03T16:47:34.918Z,19.80
2017-09-03T16:50:02.563Z,19.60
2017-09-03T16:52:30.150Z,19.50
2017-09-03T16:54:58.069Z,19.40
2017-09-03T16:57:25.633Z,19.40
2017-09-03T16:59:53.278Z,19.40
2017-09-03T17:02:20.927Z,19.40
2017-09-03T17:04:48.484Z,19.30
2017-09-03T17:07:16.097Z,19.30
2017-09-03T17:09:43.679Z,19.20
2017-09-03T17:12:11.557Z,19.20
2017-09-03T17:14:39.137Z,19.10
2017-09-03T17:17:06.714Z,18.90
2017-09-03T17:19:34.327Z,18.80
2017-09-03T17:22:01.866Z,18.70
2017-09-03T17:24:29.454Z,18.60
2017-09-03T17:26:57.038Z,18.50
2017-09-03T17:29:25.007Z,18.30
2017-09-03T17:31:56.049Z,18.20
2017-09-03T17:34:24.612Z,18.10
2017-09-03T17:36:57.852Z,18.00
2017-09-03T17:39:25.783Z,17.90
2017-09-03T17:45:00.128Z,17.70
2017-09-03T17:47:27.703Z,17.50
2017-09-03T17:49:55.268Z,17.40
2017-09-03T17:52:23.625Z,17.20
2017-09-03T17:54:51.202Z,17.20
2017-09-03T17:57:19.558Z,17.00
2017-09-03T17:59:47.424Z,17.00
2017-09-03T18:02:15.387Z,16.90
2017-09-03T18:04:43.003Z,16.80
2017-09-03T18:07:12.060Z,16.70
2017-09-03T18:09:39.717Z,16.60
2017-09-03T18:12:08.112Z,16.40
2017-09-03T18:14:35.738Z,16.30
2017-09-03T18:17:03.773Z,16.30
2017-09-03T18:19:32.539Z,16.10
2017-09-03T18:22:00.150Z,16.00
2017-09-03T18:24:27.737Z,15.80
2017-09-03T18:26:55.473Z,15.60
2017-09-03T18:29:24.826Z,15.50
2017-09-03T18:31:53.446Z,15.50
2017-09-03T18:34:21.038Z,15.30
2017-09-03T18:36:48.628Z,15.30
2017-09-03T18:39:29.028Z,15.20
2017-09-03T18:41:59.054Z,15.10
2017-09-03T18:44:26.663Z,15.00
2017-09-03T18:46:54.258Z,14.90
2017-09-03T18:49:21.863Z,14.80
2017-09-03T18:51:49.521Z,14.70
2017-09-03T18:54:19.777Z,14.60
2017-09-03T18:56:47.374Z,14.50
2017-09-03T18:59:14.940Z,14.40
2017-09-03T19:01:42.924Z,14.40
2017-09-03T19:04:10.493Z,14.30
2017-09-03T19:06:38.873Z,14.20
2017-09-03T19:09:06.485Z,14.00
2017-09-03T19:11:34.143Z,13.90
2017-09-03T19:14:01.742Z,13.80
2017-09-03T19:16:29.382Z,13.70
2017-09-03T19:18:57.520Z,13.70
2017-09-03T19:21:25.087Z,13.60
2017-09-03T19:23:52.677Z,13.50
2017-09-03T19:26:20.275Z,13.40
2017-09-03T19:28:48.453Z,13.40
2017-09-03T19:31:16.843Z,13.30
2017-09-03T19:33:44.469Z,13.20
2017-09-03T19:36:12.322Z,13.20
2017-09-03T19:38:43.799Z,13.10
2017-09-03T19:41:11.414Z,13.00
2017-09-03T19:43:40.966Z,13.00
2017-09-03T19:46:08.547Z,13.00
2017-09-03T19:48:36.178Z,12.90
2017-09-03T19:51:03.753Z,12.90
2017-09-03T19:53:31.697Z,12.80
2017-09-03T19:55:59.298Z,12.80
2017-09-03T19:58:26.883Z,12.70
2017-09-03T20:00:54.494Z,12.60
2017-09-03T20:03:22.857Z,12.60
2017-09-03T20:05:50.476Z,12.50
2017-09-03T20:08:18.066Z,12.50
2017-09-03T20:10:46.260Z,12.40
2017-09-03T20:13:14.637Z,12.30
2017-09-03T20:15:42.247Z,12.20
2017-09-03T20:18:09.870Z,12.30
2017-09-03T20:20:37.456Z,12.30
2017-09-03T20:23:05.058Z,12.20
2017-09-03T20:25:32.650Z,12.10
2017-09-03T20:28:00.549Z,12.00
2017-09-03T20:30:28.168Z,12.10
2017-09-03T20:32:55.796Z,12.00
2017-09-03T20:35:23.454Z,12.00
2017-09-03T20:37:51.063Z,11.90
2017-09-03T20:40:18.683Z,11.90
2017-09-03T20:42:46.267Z,11.80
2017-09-03T20:45:14.187Z,11.90
2017-09-03T20:47:41.786Z,11.80
2017-09-03T20:50:09.502Z,11.80
2017-09-03T20:52:37.111Z,11.70
2017-09-03T20:55:04.713Z,11.70
2017-09-03T20:57:32.311Z,11.60
2017-09-03T21:00:01.662Z,11.60
2017-09-03T21:02:29.862Z,11.70
2017-09-03T21:04:57.451Z,11.70
2017-09-03T21:07:25.037Z,11.50
2017-09-03T21:09:52.711Z,11.50
2017-09-03T21:12:21.075Z,11.40
2017-09-03T21:14:48.690Z,11.40
2017-09-03T21:17:16.285Z,11.40
2017-09-03T21:19:44.236Z,11.30
2017-09-03T21:22:11.818Z,11.30
2017-09-03T21:24:39.938Z,11.40
2017-09-03T21:27:07.546Z,11.40
2017-09-03T21:29:35.148Z,11.40
2017-09-03T21:32:03.008Z,11.30
2017-09-03T21:34:30.629Z,11.30
2017-09-03T21:36:58.207Z,11.20
2017-09-03T21:39:25.864Z,11.20
2017-09-03T21:41:53.458Z,11.20
2017-09-03T21:44:21.064Z,11.10
2017-09-03T21:46:48.671Z,11.10
2017-09-03T21:49:16.583Z,11.00
2017-09-03T21:51:44.157Z,11.00
2017-09-03T21:54:11.724Z,11.00
2017-09-03T21:56:39.349Z,11.00
2017-09-03T21:59:06.942Z,10.90
2017-09-03T22:01:34.576Z,11.00
2017-09-03T22:04:02.177Z,11.00
2017-09-03T22:06:30.105Z,11.00
2017-09-03T22:08:57.697Z,10.90
2017-09-03T22:14:18.453Z,10.90
2017-09-03T22:16:46.031Z,10.90
2017-09-03T22:19:13.908Z,10.90
2017-09-03T22:21:41.509Z,11.00
2017-09-03T22:24:09.096Z,10.90
2017-09-03T22:26:36.716Z,10.90
2017-09-03T22:29:04.290Z,10.80
2017-09-03T22:31:32.857Z,10.70
2017-09-03T22:34:00.431Z,10.70
2017-09-03T22:36:28.344Z,10.70
2017-09-03T22:38:55.930Z,10.70
2017-09-03T22:41:23.502Z,10.60
2017-09-03T22:43:51.083Z,10.60
2017-09-03T22:46:18.672Z,10.60
2017-09-03T22:48:46.264Z,10.50
2017-09-03T22:51:13.837Z,10.50
2017-09-03T22:53:41.771Z,10.50
2017-09-03T22:56:09.338Z,10.50
2017-09-03T22:58:36.907Z,10.50
2017-09-03T23:01:04.500Z,10.50
2017-09-03T23:03:32.067Z,10.50
2017-09-03T23:05:59.671Z,10.50
2017-09-03T23:08:27.241Z,10.50
2017-09-03T23:10:55.117Z,10.50
2017-09-03T23:13:22.689Z,10.40
2017-09-03T23:15:50.327Z,10.40
2017-09-03T23:18:17.925Z,10.30
2017-09-03T23:20:45.536Z,10.30
2017-09-03T23:23:13.134Z,10.30
2017-09-03T23:25:40.742Z,10.30
2017-09-03T23:28:08.622Z,10.20
2017-09-03T23:30:36.187Z,10.20
2017-09-03T23:33:03.756Z,10.10
2017-09-03T23:35:31.350Z,10.10
2017-09-03T23:37:58.924Z,10.10
2017-09-03T23:40:26.514Z,10.10
2017-09-03T23:42:54.089Z,10.10
2017-09-03T23:45:22.042Z,10.10
2017-09-03T23:47:49.625Z,10.10
2017-09-03T23:50:17.215Z,10.00
2017-09-03T23:52:44.824Z,10.10
2017-09-03T23:55:12.408Z,10.10
2017-09-03T23:57:40.016Z,10.10
